Pagrindinis puslapis
METAR-TAF:

METAR-TAF

Oro uostai :

Moline, Ilinojus, Jungtinės Amerikos Valstijos

platuma: 41-27-05N, ilguma: 090-30-53W, Aukštis: 179 m

Dabartinis oras

Ataskaita buvo paskelbta 50 minutes, ne 09:52 UTC
Vėjas 11 kt iš Vakarų/Šiaurės Vakarų
Temperatūra 1°C
Drėgmė 86%
Slėgis 1011 hPa
Matomumas: 9.7 km
Apsiniaukę ne aukštis 800 ft
rūkana

METAR: KMLI 250952Z AUTO 29011KT 6SM BR OVC008 01/M01 A2986 RMK AO2 SLP116 T00061011

Laikas: 04:42 (10:42 UTC)

Prognozė

Ataskaita buvo paskelbta 2 valandos ir 38 minutes, ne 08:04 UTC
Prognozė galioja nuo 25 metu 08 UTC su 26 metu 06 UTC
Vėjas 12 kt iš Vakarų/Šiaurės Vakarų
Matomumas: 8.0 km
Apsiniaukę ne aukštis 500 ft
rūkana
Nuo 25 metu 1200 UTC
Vėjas 12 kt iš Šiaurės Vakarų
Matomumas: 9.7 km
Apsiniaukę ne aukštis 700 ft
rūkana
Nuo 25 metu 1400 UTC
Vėjas 10 kt iš Vakarų/Šiaurės Vakarų
Matomumas: 10 km
Apsiniaukę ne aukštis 1000 ft

TAF: KMLI 250804Z 2508/2606 29012KT 5SM BR OVC005 FM251200 32012KT 6SM BR OVC007 FM251400 30010KT P6SM OVC010

Orai ataskaitas ir orų prognozės (METAR, TAF).

turimą stotys yra geltonos ir raudonos taškus žemėlapyje.

Perkelti pele per norėdami pamatyti stoties vardą.

Tada spustelėkite, norėdami matyti oro stebėjimo ir prognozės.

Norėdami pakeisti žemėlapį: spustelėkite ant žalios mygtukų su juodo kryžiaus žemyn,; žalią mygtuką su brūkšneliu, jei norite nutolinti; arba žalių rodyklių gretimoms žemėlapius.


METAR-TAF: